Terminal Aerodrome Forecast
Issued by NWS

Home | Current Version | Previous Version | Text Only | Print | Product List | Glossary On
Versions: 1 2 3 4 5 6 7 8 9 10 11 12 13 14 15 16 17 18 19 20 21 22 23 24 25 26 27 28 29 30 31 32 33
000
FTAK31 PAFA 271137
TAFASC
TAF
PASC 271137Z 2712/2812 VRB05KT 2SM BR OVC002
      TEMPO 2712/2716 1/2SM FG
     FM271800 25003KT P6SM OVC010
     FM272100 25005KT P6SM BKN050
     FM280000 20010KT P6SM BKN050=

USA.gov is the U.S. government's official web portal to all federal, state and local government web resources and services.